Time;durP1;ratioP1;P1;durP2;ratioP2;P2;SDS_P1;SDS_P2;PMS_P1;PMS_P2;Temp;Humidity;BMP_temperature;BMP_pressure;BME280_temperature;BME280_humidity;BME280_pressure;Samples;Min_cycle;Max_cycle;Signal;HPM_P1;HPM_P2
2022/12/06 00:00:54;;;;;;;7.78;6.97;;;5.90;99.90;;;;;;5030326;28;20844;-74
2022/12/06 00:03:20;;;;;;;8.13;7.30;;;5.90;99.90;;;;;;5030969;28;20249;-74
2022/12/06 00:05:45;;;;;;;6.80;6.10;;;5.90;99.90;;;;;;4997693;28;20258;-74
2022/12/06 00:08:11;;;;;;;6.70;5.47;;;5.90;99.90;;;;;;5031761;28;20331;-73
2022/12/06 00:10:37;;;;;;;6.50;5.67;;;5.90;99.90;;;;;;5032310;28;20197;-74
2022/12/06 00:13:04;;;;;;;6.67;6.07;;;5.90;99.90;;;;;;5032403;28;20174;-74
2022/12/06 00:15:33;;;;;;;8.90;6.97;;;5.90;99.90;;;;;;5033001;28;20173;-74
2022/12/06 00:17:59;;;;;;;7.25;6.50;;;5.90;99.90;;;;;;5029902;28;20194;-73
2022/12/06 00:20:24;;;;;;;6.90;5.97;;;5.90;99.90;;;;;;5030648;28;20208;-73
2022/12/06 00:22:50;;;;;;;6.50;5.50;;;5.90;99.90;;;;;;5038526;28;20189;-73
2022/12/06 00:25:16;;;;;;;10.20;6.07;;;5.90;99.90;;;;;;5031170;28;20192;-74
2022/12/06 00:27:42;;;;;;;7.00;5.63;;;5.90;99.90;;;;;;5031324;28;20256;-74
2022/12/06 00:30:08;;;;;;;7.30;6.40;;;5.90;99.90;;;;;;5031040;28;20600;-73
2022/12/06 00:32:34;;;;;;;9.38;6.15;;;5.90;99.90;;;;;;5030112;28;20548;-73
2022/12/06 00:34:59;;;;;;;7.13;6.30;;;5.90;99.90;;;;;;5031462;28;20170;-73
2022/12/06 00:37:25;;;;;;;7.20;5.63;;;5.90;99.90;;;;;;5029698;28;20239;-73
2022/12/06 00:39:51;;;;;;;6.87;5.20;;;5.90;99.90;;;;;;5031215;28;20193;-74
2022/12/06 00:42:17;;;;;;;8.00;7.20;;;5.90;99.90;;;;;;5030772;28;20166;-74
2022/12/06 00:44:42;;;;;;;7.70;6.77;;;5.90;99.90;;;;;;5030925;28;20162;-73
2022/12/06 00:47:08;;;;;;;9.67;6.67;;;6.00;99.90;;;;;;5030835;28;20171;-74
2022/12/06 00:49:34;;;;;;;9.37;7.10;;;5.90;99.90;;;;;;5030939;28;20172;-74
2022/12/06 00:51:59;;;;;;;7.13;5.70;;;5.90;99.90;;;;;;5030785;28;20587;-75
2022/12/06 00:54:25;;;;;;;8.60;5.70;;;6.00;99.90;;;;;;5029597;28;20267;-75
2022/12/06 00:56:51;;;;;;;7.90;5.90;;;6.00;99.90;;;;;;5029059;28;20174;-75
2022/12/06 00:59:17;;;;;;;7.82;6.03;;;5.90;99.90;;;;;;5030696;28;20197;-76
2022/12/06 01:01:42;;;;;;;6.67;5.80;;;5.90;99.90;;;;;;5030232;28;20192;-75
2022/12/06 01:04:08;;;;;;;11.53;6.60;;;5.90;99.90;;;;;;5029139;28;20260;-75
2022/12/06 01:06:35;;;;;;;7.53;5.30;;;6.00;99.90;;;;;;5030850;28;20220;-75
2022/12/06 01:09:05;;;;;;;7.63;5.80;;;5.90;99.90;;;;;;5028876;28;20170;-75
2022/12/06 01:11:31;;;;;;;7.15;6.40;;;5.90;99.90;;;;;;5012526;28;20201;-75
2022/12/06 01:13:57;;;;;;;8.40;6.03;;;5.90;99.90;;;;;;5030382;28;20158;-75
2022/12/06 01:16:26;;;;;;;7.10;6.10;;;5.90;99.90;;;;;;5030435;28;20556;-75
2022/12/06 01:18:56;;;;;;;7.18;6.35;;;6.00;99.90;;;;;;5028427;28;20739;-75
2022/12/06 01:21:23;;;;;;;6.80;5.93;;;6.00;99.90;;;;;;5028803;28;20251;-76
2022/12/06 01:23:49;;;;;;;7.13;6.07;;;6.00;99.90;;;;;;5028891;28;20534;-75
2022/12/06 01:26:18;;;;;;;7.30;6.30;;;6.00;99.90;;;;;;5034124;28;20181;-75
2022/12/06 01:28:44;;;;;;;7.72;6.78;;;6.00;99.90;;;;;;5030229;28;20166;-75
2022/12/06 01:31:10;;;;;;;7.13;6.43;;;6.00;99.90;;;;;;5029785;28;20185;-74
2022/12/06 01:33:36;;;;;;;11.23;6.68;;;6.10;99.90;;;;;;5029208;28;20257;-75
2022/12/06 01:36:02;;;;;;;8.70;6.33;;;6.00;99.90;;;;;;5029790;28;20643;-74
2022/12/06 01:38:28;;;;;;;7.70;6.85;;;6.10;99.90;;;;;;5029309;28;20568;-75
2022/12/06 01:40:54;;;;;;;9.80;7.27;;;6.10;99.90;;;;;;5029261;28;20193;-75
2022/12/06 01:43:40;;;;;;;9.90;7.33;;;6.10;99.90;;;;;;5034077;28;20170;-75
2022/12/06 01:46:29;;;;;;;10.43;6.57;;;6.10;99.90;;;;;;5034076;28;20581;-74
2022/12/06 01:49:22;;;;;;;9.07;7.47;;;6.10;99.90;;;;;;5033999;28;20201;-76
2022/12/06 01:51:53;;;;;;;11.60;7.68;;;6.10;99.90;;;;;;5028813;28;20213;-75
2022/12/06 01:54:20;;;;;;;7.43;6.35;;;6.10;99.90;;;;;;5034444;28;20173;-75
2022/12/06 01:56:47;;;;;;;8.13;6.95;;;6.10;99.90;;;;;;5034150;28;20201;-75
2022/12/06 01:59:15;;;;;;;10.75;7.50;;;6.10;99.90;;;;;;5033618;28;20253;-75
2022/12/06 02:01:41;;;;;;;9.75;7.65;;;6.10;99.90;;;;;;5036512;28;20565;-74
2022/12/06 02:04:07;;;;;;;10.17;6.93;;;6.10;99.90;;;;;;5033936;28;20185;-75
2022/12/06 02:06:34;;;;;;;10.25;8.60;;;6.10;99.90;;;;;;5031116;28;20196;-75
2022/12/06 02:09:02;;;;;;;8.90;7.80;;;6.10;99.90;;;;;;5033599;28;20162;-75
2022/12/06 02:11:28;;;;;;;9.93;7.93;;;6.10;99.90;;;;;;5031878;28;20681;-75
2022/12/06 02:13:54;;;;;;;8.60;6.97;;;6.10;99.90;;;;;;5033507;28;20173;-75
2022/12/06 02:16:23;;;;;;;12.30;8.43;;;6.10;99.90;;;;;;5033700;28;20259;-75
2022/12/06 02:19:03;;;;;;;6.97;6.00;;;6.10;99.90;;;;;;5032910;28;20213;-75
2022/12/06 02:21:32;;;;;;;9.98;8.80;;;6.10;99.90;;;;;;5032064;28;20225;-75
2022/12/06 02:24:07;;;;;;;10.75;8.23;;;6.20;99.90;;;;;;5032223;28;20664;-75
2022/12/06 02:26:50;;;;;;;11.40;8.00;;;6.20;99.90;;;;;;5033948;28;20158;-76
2022/12/06 02:29:22;;;;;;;9.27;7.15;;;6.20;99.90;;;;;;5033719;28;20170;-75
2022/12/06 02:32:07;;;;;;;9.48;7.18;;;6.20;99.90;;;;;;5031757;28;20197;-74
2022/12/06 02:34:57;;;;;;;9.63;7.75;;;6.20;99.90;;;;;;5033076;28;20169;-74
2022/12/06 02:37:36;;;;;;;11.30;7.90;;;6.20;99.90;;;;;;5031816;28;20905;-74
2022/12/06 02:40:08;;;;;;;9.30;7.57;;;6.20;99.90;;;;;;5038624;28;20280;-74
2022/12/06 02:42:39;;;;;;;13.10;9.02;;;6.20;99.90;;;;;;5031127;28;20169;-74
2022/12/06 02:45:16;;;;;;;11.50;8.27;;;6.20;99.90;;;;;;5031222;28;20553;-74
2022/12/06 02:47:43;;;;;;;15.15;10.05;;;6.20;99.90;;;;;;5032540;28;20173;-74
2022/12/06 02:50:28;;;;;;;13.60;8.05;;;6.20;99.90;;;;;;5033138;28;20251;-74
2022/12/06 02:52:58;;;;;;;10.43;7.90;;;6.20;99.90;;;;;;5032131;28;20240;-77
2022/12/06 02:55:25;;;;;;;14.85;8.90;;;6.20;99.90;;;;;;5031066;28;20181;-77
2022/12/06 02:57:53;;;;;;;12.88;9.93;;;6.20;99.90;;;;;;5032125;28;20670;-77
2022/12/06 03:00:40;;;;;;;14.93;9.63;;;6.20;99.90;;;;;;5031522;28;20197;-77
2022/12/06 03:03:40;;;;;;;12.32;8.60;;;6.20;99.90;;;;;;5031789;28;20174;-77
2022/12/06 03:06:44;;;;;;;10.80;8.95;;;6.20;99.90;;;;;;5014743;28;20678;-77
2022/12/06 03:09:44;;;;;;;10.07;7.82;;;6.20;99.90;;;;;;5031240;28;20637;-75
2022/12/06 03:12:38;;;;;;;8.02;7.22;;;6.20;99.90;;;;;;5032386;28;20196;-74
2022/12/06 03:15:36;;;;;;;12.43;8.70;;;6.20;99.90;;;;;;5032759;28;20261;-74
2022/12/06 03:18:19;;;;;;;13.95;7.30;;;6.20;99.90;;;;;;5036294;28;20288;-74
2022/12/06 03:21:15;;;;;;;12.32;8.77;;;6.20;99.90;;;;;;5032370;28;20193;-74
2022/12/06 03:23:48;;;;;;;9.93;7.45;;;6.20;99.90;;;;;;5030296;28;20829;-74
2022/12/06 03:26:18;;;;;;;10.30;8.90;;;6.20;99.90;;;;;;5030817;28;20820;-73
2022/12/06 03:28:47;;;;;;;11.80;8.48;;;6.20;99.90;;;;;;5032274;28;20182;-74
2022/12/06 03:31:14;;;;;;;12.20;9.73;;;6.20;99.90;;;;;;5031807;28;20255;-74
2022/12/06 03:33:49;;;;;;;9.65;8.25;;;6.20;99.90;;;;;;5014229;28;20212;-75
2022/12/06 03:36:17;;;;;;;13.55;9.73;;;6.20;99.90;;;;;;5031134;28;20235;-75
2022/12/06 03:38:51;;;;;;;12.38;9.50;;;6.20;99.90;;;;;;5030306;28;20206;-74
2022/12/06 03:41:20;;;;;;;13.43;9.43;;;6.20;99.90;;;;;;5030947;28;20193;-74
2022/12/06 03:43:46;;;;;;;12.02;9.55;;;6.30;99.90;;;;;;5031744;28;20224;-74
2022/12/06 03:46:17;;;;;;;13.20;9.98;;;6.30;99.90;;;;;;5032215;28;20173;-74
2022/12/06 03:48:57;;;;;;;14.48;10.55;;;6.30;99.90;;;;;;5031258;28;20170;-75
2022/12/06 03:51:32;;;;;;;12.20;8.93;;;6.30;99.90;;;;;;5031594;28;20216;-75
2022/12/06 03:54:01;;;;;;;17.10;11.88;;;6.30;99.90;;;;;;5035905;28;20231;-75
2022/12/06 03:56:27;;;;;;;14.98;10.50;;;6.30;99.90;;;;;;5030019;28;20611;-74
2022/12/06 03:58:53;;;;;;;14.05;10.25;;;6.30;99.90;;;;;;5012615;28;20693;-74
2022/12/06 04:01:19;;;;;;;16.50;10.80;;;6.30;99.90;;;;;;5029535;28;20186;-74
2022/12/06 04:03:45;;;;;;;13.40;9.93;;;6.30;99.90;;;;;;5030690;28;20169;-74
2022/12/06 04:06:11;;;;;;;12.43;9.60;;;6.40;99.90;;;;;;5031378;28;20564;-74
2022/12/06 04:08:38;;;;;;;13.40;10.95;;;6.40;99.90;;;;;;5036370;28;20675;-74
2022/12/06 04:11:04;;;;;;;16.98;10.70;;;6.40;99.90;;;;;;5042771;28;20284;-74
2022/12/06 04:13:30;;;;;;;14.13;9.77;;;6.40;99.90;;;;;;5051176;28;20245;-74
2022/12/06 04:15:58;;;;;;;13.27;10.67;;;6.40;99.90;;;;;;5051027;28;20234;-74
2022/12/06 04:18:25;;;;;;;14.18;10.13;;;6.40;99.90;;;;;;5050820;28;20619;-74
2022/12/06 04:23:45;;;;;;;15.60;9.68;;;6.40;99.90;;;;;;5049797;28;20192;-74
2022/12/06 04:26:15;;;;;;;11.90;9.10;;;6.40;99.90;;;;;;5049853;28;20323;-74
2022/12/06 04:39:41;;;;;;;14.35;9.85;;;6.40;99.90;;;;;;5050962;28;20514;-74
2022/12/06 04:44:51;;;;;;;15.35;10.63;;;6.40;99.90;;;;;;5050502;28;20748;-74
2022/12/06 04:47:17;;;;;;;13.83;9.77;;;6.40;99.90;;;;;;5049962;28;20267;-74
2022/12/06 04:49:43;;;;;;;17.85;9.90;;;6.40;99.90;;;;;;5050512;28;20967;-74
2022/12/06 04:52:10;;;;;;;12.87;9.83;;;6.40;99.90;;;;;;5048957;28;20180;-75
2022/12/06 04:54:36;;;;;;;14.18;9.60;;;6.40;99.90;;;;;;5049159;28;20689;-74
2022/12/06 04:57:03;;;;;;;11.55;9.32;;;6.40;99.90;;;;;;5049899;28;22462;-74
2022/12/06 04:59:29;;;;;;;15.20;9.88;;;6.40;99.90;;;;;;5050307;28;20165;-75
2022/12/06 05:01:55;;;;;;;14.73;9.53;;;6.40;99.90;;;;;;5050209;28;20172;-75
2022/12/06 05:04:21;;;;;;;18.23;9.73;;;6.50;99.90;;;;;;5049513;28;20196;-75
2022/12/06 05:06:47;;;;;;;14.98;10.20;;;6.50;99.90;;;;;;5049355;28;20165;-75
2022/12/06 05:09:13;;;;;;;15.40;9.13;;;6.50;99.90;;;;;;5054872;28;20176;-75
2022/12/06 05:11:39;;;;;;;14.35;9.05;;;6.50;99.90;;;;;;5049236;28;20595;-75
2022/12/06 05:14:05;;;;;;;14.40;9.10;;;6.50;99.90;;;;;;5047687;28;20169;-75
2022/12/06 05:16:31;;;;;;;12.70;9.27;;;6.60;99.90;;;;;;5049388;28;20169;-75
2022/12/06 05:18:56;;;;;;;14.00;10.57;;;6.60;99.90;;;;;;5048652;28;20622;-75
2022/12/06 05:21:24;;;;;;;10.93;9.80;;;6.60;99.90;;;;;;5047673;28;21266;-75
2022/12/06 05:23:53;;;;;;;14.00;10.35;;;6.60;99.90;;;;;;5047865;28;20173;-75
2022/12/06 05:26:20;;;;;;;13.55;9.68;;;6.60;99.90;;;;;;5048186;28;20196;-77
2022/12/06 05:28:46;;;;;;;13.07;9.85;;;6.60;99.90;;;;;;5048504;28;20207;-77
2022/12/06 05:31:13;;;;;;;15.38;9.02;;;6.60;99.90;;;;;;5049044;28;20200;-77
2022/12/06 05:33:39;;;;;;;12.32;9.30;;;6.60;99.90;;;;;;5049147;28;20172;-77
2022/12/06 05:36:10;;;;;;;11.07;8.82;;;6.70;99.90;;;;;;5049624;28;20173;-77
2022/12/06 05:38:36;;;;;;;13.50;9.60;;;6.70;99.90;;;;;;5048673;28;20193;-77
2022/12/06 05:41:03;;;;;;;10.00;8.43;;;6.70;99.90;;;;;;5047975;28;20372;-75
2022/12/06 05:43:29;;;;;;;13.43;10.18;;;6.70;99.90;;;;;;5047544;28;20293;-76
2022/12/06 05:45:55;;;;;;;9.13;7.22;;;6.70;99.90;;;;;;5054595;28;20172;-75
2022/12/06 05:48:21;;;;;;;13.02;8.95;;;6.80;99.90;;;;;;5046473;28;20223;-75
2022/12/06 05:50:47;;;;;;;13.20;9.07;;;6.80;99.90;;;;;;5048775;28;20208;-75
2022/12/06 05:53:13;;;;;;;13.15;8.93;;;6.80;99.90;;;;;;5047986;28;20595;-75
2022/12/06 05:55:39;;;;;;;12.60;8.83;;;6.80;99.90;;;;;;5036990;28;20288;-76
2022/12/06 05:58:05;;;;;;;16.27;9.57;;;6.80;99.90;;;;;;5046442;28;20628;-76
2022/12/06 06:00:31;;;;;;;11.97;9.07;;;6.80;99.90;;;;;;5048806;28;20591;-76
2022/12/06 06:02:57;;;;;;;12.30;8.93;;;6.90;99.90;;;;;;5047530;28;20578;-76
2022/12/06 06:05:23;;;;;;;11.83;8.87;;;6.80;99.90;;;;;;5046829;28;20177;-76
2022/12/06 06:07:49;;;;;;;13.17;9.37;;;6.90;99.90;;;;;;5030737;28;20567;-76
2022/12/06 06:10:15;;;;;;;10.40;8.73;;;6.90;99.90;;;;;;5051020;28;20550;-75
2022/12/06 06:12:43;;;;;;;16.20;10.27;;;6.90;99.90;;;;;;5047178;28;20675;-76
2022/12/06 06:15:13;;;;;;;13.48;10.25;;;6.90;99.90;;;;;;5048136;28;20169;-77
2022/12/06 06:17:40;;;;;;;13.40;10.30;;;6.90;99.90;;;;;;5013644;28;20877;-77
2022/12/06 06:20:08;;;;;;;16.58;10.55;;;6.90;99.90;;;;;;5029162;28;20712;-76
2022/12/06 06:22:35;;;;;;;14.05;10.50;;;6.90;99.90;;;;;;5033179;28;20182;-76
2022/12/06 06:25:03;;;;;;;11.73;8.63;;;6.90;99.90;;;;;;5027990;28;20196;-77
2022/12/06 06:27:32;;;;;;;14.38;10.80;;;6.90;99.90;;;;;;5030101;28;20181;-77
2022/12/06 06:29:58;;;;;;;16.23;10.98;;;6.90;99.90;;;;;;5035355;28;20182;-78
2022/12/06 06:32:24;;;;;;;13.30;9.43;;;6.90;99.90;;;;;;5032201;28;20617;-78
2022/12/06 06:34:50;;;;;;;16.57;10.10;;;6.90;99.90;;;;;;5032882;28;20166;-79
2022/12/06 06:37:16;;;;;;;13.40;9.93;;;6.90;99.90;;;;;;5032210;28;21048;-78
2022/12/06 06:39:42;;;;;;;12.27;9.57;;;6.90;99.90;;;;;;5031126;28;20197;-78
2022/12/06 06:42:07;;;;;;;14.57;10.80;;;6.90;99.90;;;;;;5032192;28;20954;-78
2022/12/06 06:44:33;;;;;;;13.83;11.13;;;6.90;99.90;;;;;;5032137;28;20691;-78
2022/12/06 06:46:59;;;;;;;18.13;11.53;;;7.00;99.90;;;;;;5030815;28;20237;-78
2022/12/06 06:49:24;;;;;;;16.60;10.70;;;7.00;99.90;;;;;;5032130;28;20570;-78
2022/12/06 06:51:50;;;;;;;17.50;10.30;;;7.00;99.90;;;;;;5032385;28;20247;-77
2022/12/06 06:54:17;;;;;;;15.30;10.70;;;7.00;99.90;;;;;;5032386;28;20192;-78
2022/12/06 06:57:01;;;;;;;14.63;10.10;;;7.10;99.90;;;;;;5032350;28;20951;-78
2022/12/06 06:59:27;;;;;;;15.48;10.35;;;7.10;99.90;;;;;;5032039;28;20184;-78
2022/12/06 07:01:53;;;;;;;13.97;10.53;;;7.10;99.90;;;;;;5030555;28;20189;-78
2022/12/06 07:04:18;;;;;;;16.10;10.87;;;7.10;99.90;;;;;;5036612;28;20157;-77
2022/12/06 07:06:44;;;;;;;15.13;10.27;;;7.10;99.90;;;;;;5031788;28;20170;-78
2022/12/06 07:09:10;;;;;;;15.70;10.83;;;7.20;99.90;;;;;;5031836;28;20181;-78
2022/12/06 07:11:36;;;;;;;16.13;9.97;;;7.20;99.90;;;;;;5031332;28;20623;-76
2022/12/06 07:14:02;;;;;;;14.48;9.88;;;7.20;99.90;;;;;;5030754;28;20252;-75
2022/12/06 07:16:28;;;;;;;16.20;11.32;;;7.20;99.90;;;;;;5031277;28;20180;-76
2022/12/06 07:18:54;;;;;;;15.43;10.70;;;7.20;99.90;;;;;;5029578;28;20197;-76
2022/12/06 07:21:23;;;;;;;12.77;9.77;;;7.20;99.90;;;;;;5030454;28;20650;-76
2022/12/06 07:23:50;;;;;;;15.63;10.95;;;7.20;99.90;;;;;;5031637;28;20650;-77
2022/12/06 07:26:18;;;;;;;14.82;10.98;;;7.30;99.90;;;;;;5030917;28;20574;-76
2022/12/06 07:28:46;;;;;;;16.15;11.35;;;7.30;99.90;;;;;;5029734;28;20713;-76
2022/12/06 07:31:17;;;;;;;15.07;10.25;;;7.30;99.90;;;;;;5030025;28;20194;-76
2022/12/06 07:33:44;;;;;;;14.02;10.70;;;7.30;99.90;;;;;;5029675;28;20178;-77
2022/12/06 07:36:12;;;;;;;17.02;10.32;;;7.30;99.90;;;;;;5030626;28;20174;-77
2022/12/06 07:38:38;;;;;;;16.33;10.20;;;7.30;99.90;;;;;;5028726;28;20216;-76
2022/12/06 07:46:37;;;;;;;16.00;11.55;;;7.40;99.90;;;;;;5029440;28;20309;-77
2022/12/06 07:49:03;;;;;;;14.97;12.00;;;7.40;99.90;;;;;;5029046;28;20189;-77
2022/12/06 07:51:29;;;;;;;14.03;10.00;;;7.40;99.90;;;;;;5029074;28;21195;-77
2022/12/06 07:53:57;;;;;;;15.30;11.80;;;7.40;99.90;;;;;;5030461;28;20651;-77
2022/12/06 07:56:23;;;;;;;18.40;13.10;;;7.40;99.90;;;;;;5030435;28;20579;-78
2022/12/06 07:58:48;;;;;;;15.43;10.93;;;7.40;99.90;;;;;;5030500;28;20198;-78
2022/12/06 08:01:14;;;;;;;15.90;12.10;;;7.40;99.90;;;;;;5029903;28;20595;-78
2022/12/06 08:03:40;;;;;;;17.33;11.80;;;7.40;99.90;;;;;;5030704;28;20593;-78
2022/12/06 08:06:07;;;;;;;17.20;13.20;;;7.40;99.90;;;;;;5030169;28;20292;-78
2022/12/06 08:08:33;;;;;;;18.27;11.80;;;7.40;99.90;;;;;;5028952;28;20642;-78
2022/12/06 08:11:05;;;;;;;16.25;12.55;;;7.50;99.90;;;;;;5030735;28;20272;-77
2022/12/06 08:13:32;;;;;;;17.77;12.00;;;7.50;99.90;;;;;;5030533;28;20181;-78
2022/12/06 08:15:58;;;;;;;18.17;13.65;;;7.50;99.90;;;;;;5030147;28;20696;-77
2022/12/06 08:18:24;;;;;;;18.63;12.80;;;7.50;99.90;;;;;;5030021;28;20193;-77
2022/12/06 08:20:52;;;;;;;18.65;12.45;;;7.60;99.90;;;;;;5030044;28;20189;-77
2022/12/06 08:23:18;;;;;;;18.42;11.75;;;7.60;99.90;;;;;;5029933;28;20172;-77
2022/12/06 08:25:44;;;;;;;18.83;11.65;;;7.60;99.90;;;;;;5030126;28;20265;-77
2022/12/06 08:28:10;;;;;;;16.17;11.90;;;7.60;99.90;;;;;;5028275;28;20187;-77
2022/12/06 08:30:40;;;;;;;16.50;11.10;;;7.60;99.90;;;;;;5029751;28;20744;-77
2022/12/06 08:33:05;;;;;;;14.80;10.82;;;7.60;99.90;;;;;;5029438;28;20227;-77
2022/12/06 08:35:31;;;;;;;14.70;9.63;;;7.60;99.90;;;;;;5030078;28;20169;-77
2022/12/06 08:37:57;;;;;;;16.43;11.70;;;7.70;99.90;;;;;;4995198;28;20201;-77
2022/12/06 08:40:22;;;;;;;14.20;10.60;;;7.70;99.90;;;;;;5028623;28;20257;-77
2022/12/06 08:42:48;;;;;;;21.50;12.13;;;7.70;99.90;;;;;;5029341;28;20169;-77
2022/12/06 08:45:14;;;;;;;18.90;10.63;;;7.70;99.90;;;;;;5027319;28;20196;-77
2022/12/06 08:47:40;;;;;;;13.53;10.83;;;7.70;99.90;;;;;;5027942;28;20173;-77
2022/12/06 08:50:06;;;;;;;15.77;11.17;;;7.80;99.90;;;;;;5027585;28;20232;-77
2022/12/06 08:52:32;;;;;;;14.63;10.63;;;7.80;99.90;;;;;;5028210;28;20216;-77
2022/12/06 08:54:58;;;;;;;18.30;13.05;;;7.80;99.90;;;;;;5029808;28;20660;-77
2022/12/06 08:57:24;;;;;;;18.27;12.80;;;7.80;99.90;;;;;;5028122;28;20209;-77
2022/12/06 08:59:49;;;;;;;16.00;11.37;;;7.80;99.90;;;;;;5029155;28;20551;-77
2022/12/06 09:02:15;;;;;;;16.47;10.30;;;7.90;99.90;;;;;;5011718;28;20565;-77
2022/12/06 09:04:41;;;;;;;16.10;10.60;;;7.90;99.90;;;;;;5028479;28;20162;-76
2022/12/06 09:07:07;;;;;;;22.30;11.90;;;7.90;99.90;;;;;;5028932;28;20591;-77
2022/12/06 09:09:33;;;;;;;15.73;10.73;;;8.00;99.90;;;;;;5028154;28;20564;-77
2022/12/06 09:11:59;;;;;;;18.05;11.77;;;8.00;99.90;;;;;;5028516;28;20174;-77
2022/12/06 09:14:25;;;;;;;17.17;11.20;;;8.00;99.90;;;;;;5029507;28;20719;-77
2022/12/06 09:16:51;;;;;;;19.07;11.67;;;8.10;99.90;;;;;;5028830;28;20162;-76
2022/12/06 09:19:17;;;;;;;14.93;10.33;;;8.10;99.90;;;;;;5029255;28;20661;-77
2022/12/06 09:21:45;;;;;;;15.50;10.63;;;8.10;99.90;;;;;;5028657;28;20189;-76
2022/12/06 09:24:16;;;;;;;17.83;9.52;;;8.10;99.90;;;;;;5028113;28;20212;-77
2022/12/06 09:26:42;;;;;;;13.15;10.10;;;8.20;99.90;;;;;;5028644;28;20166;-77
2022/12/06 09:29:08;;;;;;;14.67;9.53;;;8.20;99.90;;;;;;5029049;28;20173;-77
2022/12/06 09:31:38;;;;;;;13.13;9.45;;;8.20;99.90;;;;;;5027755;28;20277;-77
2022/12/06 09:34:05;;;;;;;10.60;8.32;;;8.20;99.90;;;;;;5030643;28;20509;-76
2022/12/06 09:36:31;;;;;;;12.75;8.88;;;8.20;99.90;;;;;;5036932;28;20173;-77
2022/12/06 09:39:04;;;;;;;11.73;8.70;;;8.20;99.90;;;;;;5032905;28;20215;-76
2022/12/06 09:42:07;;;;;;;12.13;7.78;;;8.20;99.90;;;;;;5030126;28;20276;-77
2022/12/06 09:44:54;;;;;;;15.57;10.25;;;8.20;99.90;;;;;;5033545;28;20177;-77
2022/12/06 09:47:48;;;;;;;12.32;8.35;;;8.20;99.90;;;;;;5032445;28;20170;-77
2022/12/06 09:50:35;;;;;;;12.50;8.38;;;8.20;99.90;;;;;;5028444;28;20201;-77
2022/12/06 09:53:06;;;;;;;10.68;7.57;;;8.10;99.90;;;;;;5027821;28;20170;-77
2022/12/06 09:55:54;;;;;;;12.63;8.77;;;8.10;99.90;;;;;;5027731;28;20181;-77
2022/12/06 09:58:38;;;;;;;11.10;8.73;;;8.10;99.90;;;;;;5027432;28;20211;-77
2022/12/06 10:01:49;;;;;;;10.45;7.70;;;8.10;99.90;;;;;;5028883;28;20192;-77
2022/12/06 10:04:59;;;;;;;10.15;7.53;;;8.20;99.90;;;;;;5032252;28;20256;-77
2022/12/06 10:07:56;;;;;;;16.80;8.63;;;8.20;99.90;;;;;;5024839;28;20233;-77
2022/12/06 10:10:47;;;;;;;10.80;7.80;;;8.20;99.90;;;;;;5020958;28;20201;-77
2022/12/06 10:13:34;;;;;;;7.93;6.50;;;8.20;99.90;;;;;;5032520;28;20183;-77
2022/12/06 10:16:19;;;;;;;8.88;7.30;;;8.20;99.90;;;;;;5032497;28;20262;-77
2022/12/06 10:19:20;;;;;;;11.75;6.93;;;8.20;99.90;;;;;;5031525;28;20266;-77
2022/12/06 10:22:01;;;;;;;10.18;6.45;;;8.20;99.90;;;;;;5030508;28;20276;-77
2022/12/06 10:24:40;;;;;;;10.88;7.93;;;8.20;99.90;;;;;;5024897;28;20208;-77
2022/12/06 10:27:24;;;;;;;11.43;6.63;;;8.20;99.90;;;;;;5031732;28;20170;-77
2022/12/06 10:30:13;;;;;;;8.50;6.93;;;8.30;99.90;;;;;;5032388;28;20269;-77
2022/12/06 10:32:47;;;;;;;9.75;7.45;;;8.30;99.90;;;;;;5031929;28;20872;-77
2022/12/06 10:35:18;;;;;;;8.30;6.57;;;8.30;99.90;;;;;;5032117;28;20188;-76
2022/12/06 10:37:57;;;;;;;10.57;7.03;;;8.30;99.90;;;;;;5030836;28;20201;-76
2022/12/06 10:41:07;;;;;;;9.90;7.70;;;8.40;99.90;;;;;;5032100;28;20185;-76
2022/12/06 10:43:53;;;;;;;9.07;7.05;;;8.40;99.90;;;;;;5007705;28;20878;-77
2022/12/06 10:47:03;;;;;;;8.40;7.30;;;8.40;99.90;;;;;;5032462;28;20158;-76
2022/12/06 10:49:47;;;;;;;6.75;6.03;;;8.50;99.90;;;;;;5032161;28;20580;-76
2022/12/06 10:52:24;;;;;;;8.32;6.97;;;8.50;99.90;;;;;;5030409;28;20170;-76
2022/12/06 10:55:05;;;;;;;8.18;6.82;;;8.60;99.90;;;;;;5031549;28;20162;-76
2022/12/06 10:57:44;;;;;;;8.30;7.15;;;8.60;99.90;;;;;;5031522;28;20189;-76
2022/12/06 11:00:15;;;;;;;9.45;7.28;;;8.60;99.90;;;;;;5031433;28;20198;-76
2022/12/06 11:02:46;;;;;;;10.18;7.00;;;8.70;99.90;;;;;;5030661;28;20162;-76
2022/12/06 11:05:25;;;;;;;9.45;5.80;;;8.70;99.90;;;;;;5032764;28;20171;-75
2022/12/06 11:07:55;;;;;;;10.40;6.78;;;8.70;99.90;;;;;;5014099;28;20185;-75
2022/12/06 11:10:25;;;;;;;8.52;6.50;;;8.70;99.90;;;;;;5033368;28;20220;-76
2022/12/06 11:13:17;;;;;;;9.40;6.40;;;8.70;99.90;;;;;;5029942;28;20173;-75
2022/12/06 11:16:02;;;;;;;7.13;5.85;;;8.70;99.90;;;;;;4990278;28;20312;-75
2022/12/06 11:18:29;;;;;;;7.40;5.82;;;8.70;99.90;;;;;;5011003;28;20252;-77
2022/12/06 11:21:27;;;;;;;8.18;5.65;;;8.70;99.90;;;;;;5012316;28;20221;-75
2022/12/06 11:24:03;;;;;;;8.18;6.13;;;8.70;99.90;;;;;;5011604;28;20588;-75
2022/12/06 11:26:47;;;;;;;8.10;6.05;;;8.80;99.90;;;;;;5012494;28;20166;-75
2022/12/06 11:29:15;;;;;;;7.00;6.20;;;8.80;99.90;;;;;;5011802;28;20173;-75
2022/12/06 11:31:46;;;;;;;7.50;6.15;;;8.80;99.90;;;;;;5011508;28;20201;-75
2022/12/06 11:34:23;;;;;;;6.53;5.35;;;8.80;99.90;;;;;;5011631;28;20177;-75
2022/12/06 11:36:51;;;;;;;6.57;5.63;;;8.80;99.90;;;;;;5010993;28;20225;-76
2022/12/06 11:39:17;;;;;;;7.80;6.20;;;8.80;99.90;;;;;;5028502;28;20217;-76
2022/12/06 11:41:48;;;;;;;6.68;5.97;;;8.80;99.90;;;;;;5029079;28;20197;-75
2022/12/06 11:44:26;;;;;;;7.20;5.70;;;8.80;99.90;;;;;;5030936;28;20174;-75
2022/12/06 11:47:01;;;;;;;8.05;6.25;;;8.80;99.90;;;;;;5030667;28;20168;-76
2022/12/06 11:49:30;;;;;;;7.13;6.15;;;8.80;99.90;;;;;;5030714;28;20169;-75
2022/12/06 11:51:59;;;;;;;5.45;4.90;;;8.90;99.90;;;;;;5013064;28;20178;-75
2022/12/06 11:54:27;;;;;;;7.72;5.30;;;8.90;99.90;;;;;;5029819;28;20264;-76
2022/12/06 11:56:57;;;;;;;5.88;4.88;;;8.90;99.90;;;;;;5013050;28;20559;-76
2022/12/06 11:59:27;;;;;;;6.05;5.45;;;8.90;99.90;;;;;;5028170;28;20215;-76
2022/12/06 12:01:56;;;;;;;6.35;5.07;;;8.90;99.90;;;;;;5028294;28;20228;-76
2022/12/06 12:04:23;;;;;;;6.70;4.93;;;8.90;99.90;;;;;;5042154;28;20253;-77
2022/12/06 12:07:18;;;;;;;6.47;4.35;;;9.00;99.90;;;;;;5030091;28;20173;-76
2022/12/06 12:09:55;;;;;;;6.50;5.00;;;9.00;99.90;;;;;;5009500;28;20213;-77
2022/12/06 12:15:38;;;;;;;4.45;4.03;;;9.00;99.90;;;;;;5029769;28;20202;-76
2022/12/06 12:18:05;;;;;;;5.45;4.95;;;9.10;99.90;;;;;;5030635;28;20291;-76
2022/12/06 12:20:43;;;;;;;10.80;4.07;;;9.00;99.90;;;;;;5030516;28;20193;-76
2022/12/06 12:23:36;;;;;;;5.28;4.68;;;9.00;99.90;;;;;;5029974;28;20239;-76
2022/12/06 12:26:11;;;;;;;6.00;4.25;;;9.00;99.90;;;;;;5029575;28;20629;-76
2022/12/06 12:28:37;;;;;;;5.45;4.35;;;9.00;99.90;;;;;;5028343;28;20180;-76
2022/12/06 12:31:15;;;;;;;4.07;3.70;;;9.00;99.90;;;;;;5030740;28;20233;-76
2022/12/06 12:33:41;;;;;;;4.55;3.75;;;9.00;99.90;;;;;;5012409;28;20646;-76
2022/12/06 12:36:06;;;;;;;9.47;4.67;;;9.00;99.90;;;;;;5030261;28;20185;-77
2022/12/06 12:38:50;;;;;;;5.63;4.93;;;9.00;99.90;;;;;;5028417;28;20232;-76
2022/12/06 12:41:31;;;;;;;7.10;5.47;;;9.00;99.90;;;;;;5030170;28;20200;-76
2022/12/06 12:43:58;;;;;;;10.95;8.85;;;9.10;99.90;;;;;;5028759;28;20172;-76
2022/12/06 12:46:27;;;;;;;10.13;8.10;;;9.10;99.90;;;;;;5030174;28;20204;-77
2022/12/06 12:49:11;;;;;;;9.48;6.50;;;9.10;99.90;;;;;;5029859;28;20177;-77
2022/12/06 12:51:38;;;;;;;9.40;8.38;;;9.20;99.90;;;;;;5029216;28;20193;-76
2022/12/06 12:54:21;;;;;;;9.15;6.82;;;9.20;99.90;;;;;;5030442;28;20216;-77
2022/12/06 12:56:47;;;;;;;8.35;6.68;;;9.30;99.90;;;;;;5029654;28;20176;-76
2022/12/06 12:59:18;;;;;;;6.80;5.50;;;9.30;99.90;;;;;;5029543;28;20229;-75
2022/12/06 13:02:11;;;;;;;5.80;4.18;;;9.30;99.90;;;;;;5025879;28;20185;-76
2022/12/06 13:04:42;;;;;;;6.55;4.75;;;9.30;99.90;;;;;;4992845;28;20177;-72
2022/12/06 13:07:18;;;;;;;5.82;4.47;;;9.30;99.90;;;;;;5010671;28;20212;-72
2022/12/06 13:10:07;;;;;;;6.43;5.20;;;9.40;99.90;;;;;;5010232;28;20181;-73
2022/12/06 13:13:12;;;;;;;6.45;4.40;;;9.40;99.90;;;;;;5010203;28;20170;-72
2022/12/06 13:15:47;;;;;;;4.70;4.05;;;9.40;99.90;;;;;;4992994;28;20181;-73
2022/12/06 13:18:18;;;;;;;5.22;4.25;;;9.50;99.90;;;;;;5008720;28;20194;-73
2022/12/06 13:20:46;;;;;;;4.75;3.47;;;9.50;99.90;;;;;;5008874;28;20371;-72
2022/12/06 13:23:15;;;;;;;4.88;4.00;;;9.50;99.90;;;;;;5008494;28;20262;-72
2022/12/06 13:25:56;;;;;;;6.32;4.78;;;9.50;99.90;;;;;;5010090;28;20237;-72
2022/12/06 13:28:31;;;;;;;6.05;4.25;;;9.50;99.90;;;;;;5009762;28;20185;-72
2022/12/06 13:31:03;;;;;;;4.18;3.72;;;9.50;99.90;;;;;;5008873;28;20189;-72
2022/12/06 13:33:33;;;;;;;4.20;3.80;;;9.50;99.90;;;;;;5009995;28;20494;-73
2022/12/06 13:36:03;;;;;;;4.88;3.65;;;9.50;99.90;;;;;;5009957;28;20197;-73